Time;durP1;ratioP1;P1;durP2;ratioP2;P2;SDS_P1;SDS_P2;PMS_P1;PMS_P2;Temp;Humidity;BMP_temperature;BMP_pressure;BME280_temperature;BME280_humidity;BME280_pressure;Samples;Min_cycle;Max_cycle;Signal;HPM_P1;HPM_P2
2023/06/27 00:01:39;;;;;;;18.70;18.10;;;25.20;53.30;;;;;;4986214;28;20502;-60
2023/06/27 00:04:07;;;;;;;20.77;19.87;;;25.20;53.40;;;;;;4973602;28;20881;-59
2023/06/27 00:06:37;;;;;;;19.57;18.70;;;25.20;53.40;;;;;;4973471;28;20577;-60
2023/06/27 00:09:05;;;;;;;18.80;18.20;;;25.20;53.50;;;;;;4973724;28;20458;-59
2023/06/27 00:11:32;;;;;;;20.27;19.67;;;25.10;53.50;;;;;;4973526;28;20459;-59
2023/06/27 00:13:59;;;;;;;19.80;18.90;;;25.20;53.60;;;;;;4973657;28;20479;-60
2023/06/27 00:16:32;;;;;;;19.20;18.60;;;25.20;53.60;;;;;;4973376;28;20506;-60
2023/06/27 00:19:03;;;;;;;19.30;18.63;;;25.20;53.60;;;;;;4973742;28;20527;-60
2023/06/27 00:21:32;;;;;;;19.73;19.03;;;25.10;53.60;;;;;;4973552;28;20447;-61
2023/06/27 00:24:00;;;;;;;18.50;17.90;;;25.10;53.80;;;;;;4973527;28;20479;-61
2023/06/27 00:26:27;;;;;;;19.10;18.50;;;25.10;54.00;;;;;;4973033;28;20479;-59
2023/06/27 00:28:54;;;;;;;19.10;18.30;;;25.10;54.00;;;;;;4973396;28;20506;-60
2023/06/27 00:31:21;;;;;;;20.10;19.40;;;25.10;54.00;;;;;;4983149;28;20525;-59
2023/06/27 00:33:48;;;;;;;20.70;19.93;;;25.00;54.00;;;;;;4992775;28;20530;-60
2023/06/27 00:36:15;;;;;;;19.13;18.40;;;25.10;54.00;;;;;;4992642;28;20558;-58
2023/06/27 00:38:44;;;;;;;18.73;18.03;;;25.00;54.10;;;;;;4992718;28;20478;-61
2023/06/27 00:41:10;;;;;;;20.80;20.00;;;25.10;54.10;;;;;;4992369;28;20881;-61
2023/06/27 00:43:37;;;;;;;18.77;18.17;;;25.00;54.20;;;;;;4992826;28;20483;-60
2023/06/27 00:46:07;;;;;;;19.70;19.00;;;25.00;54.40;;;;;;4992482;28;20499;-60
2023/06/27 00:48:35;;;;;;;19.30;18.60;;;25.00;54.60;;;;;;4992544;28;20518;-61
2023/06/27 00:51:03;;;;;;;19.50;18.80;;;25.00;54.70;;;;;;4991815;28;20494;-60
2023/06/27 00:53:30;;;;;;;19.37;18.77;;;25.00;54.80;;;;;;4992755;28;20955;-59
2023/06/27 00:55:58;;;;;;;18.43;17.73;;;25.00;54.80;;;;;;4992358;28;20566;-60
2023/06/27 00:58:26;;;;;;;19.30;18.60;;;24.90;54.90;;;;;;4992585;28;20963;-60
2023/06/27 01:00:53;;;;;;;21.10;20.30;;;24.90;54.90;;;;;;4990072;28;20474;-59
2023/06/27 01:03:20;;;;;;;19.53;18.93;;;24.90;54.90;;;;;;4980269;28;20538;-60
2023/06/27 01:05:48;;;;;;;21.53;20.70;;;24.90;55.00;;;;;;4992111;28;20470;-61
2023/06/27 01:08:22;;;;;;;21.30;20.17;;;24.90;55.00;;;;;;4992277;28;20916;-59
2023/06/27 01:10:53;;;;;;;20.07;19.27;;;24.90;55.10;;;;;;4991571;28;20530;-60
2023/06/27 01:13:29;;;;;;;21.73;20.93;;;24.90;55.10;;;;;;4992293;28;20986;-61
2023/06/27 01:15:57;;;;;;;19.30;18.60;;;24.90;55.10;;;;;;4992073;28;20873;-61
2023/06/27 01:18:26;;;;;;;18.77;18.17;;;24.90;55.20;;;;;;4992160;28;20863;-61
2023/06/27 01:20:54;;;;;;;18.97;18.30;;;24.80;55.20;;;;;;4982692;28;20534;-59
2023/06/27 01:23:25;;;;;;;19.23;18.63;;;24.90;55.40;;;;;;4972982;28;20452;-61
2023/06/27 01:26:01;;;;;;;18.73;18.13;;;24.80;55.40;;;;;;4972855;28;20468;-57
2023/06/27 01:28:28;;;;;;;20.50;19.80;;;24.80;55.40;;;;;;4972836;28;20483;-60
2023/06/27 01:30:55;;;;;;;19.67;19.07;;;24.80;55.50;;;;;;4972439;28;20483;-61
2023/06/27 01:33:32;;;;;;;21.13;20.13;;;24.80;55.60;;;;;;4972236;28;20451;-60
2023/06/27 01:36:04;;;;;;;19.50;18.90;;;24.70;55.80;;;;;;4972703;28;21049;-60
2023/06/27 01:38:36;;;;;;;18.93;18.37;;;24.70;55.80;;;;;;4972558;28;20531;-60
2023/06/27 01:41:08;;;;;;;20.53;19.83;;;24.80;55.90;;;;;;4972319;28;20860;-61
2023/06/27 01:43:37;;;;;;;20.67;19.97;;;24.70;56.00;;;;;;4976369;28;20887;-61
2023/06/27 01:46:04;;;;;;;20.73;19.93;;;24.70;56.20;;;;;;4976181;28;20502;-61
2023/06/27 01:48:33;;;;;;;20.47;19.57;;;24.70;56.30;;;;;;4976293;28;20579;-59
2023/06/27 01:50:59;;;;;;;19.00;18.30;;;24.70;56.20;;;;;;4988745;28;20987;-59
2023/06/27 01:53:26;;;;;;;20.70;19.93;;;24.70;56.70;;;;;;4995982;28;20979;-61
2023/06/27 01:55:53;;;;;;;19.10;18.40;;;24.70;56.30;;;;;;4995550;28;20517;-60
2023/06/27 01:58:22;;;;;;;20.00;19.30;;;24.60;56.50;;;;;;4995636;28;20504;-61
2023/06/27 02:00:49;;;;;;;19.60;19.00;;;24.60;56.70;;;;;;4993913;28;20494;-60
2023/06/27 02:03:16;;;;;;;20.13;19.33;;;24.60;56.80;;;;;;4995613;28;20451;-60
2023/06/27 02:05:43;;;;;;;20.10;19.20;;;24.60;57.10;;;;;;4995367;28;20553;-60
2023/06/27 02:08:10;;;;;;;19.10;18.50;;;24.60;57.20;;;;;;4995274;28;21063;-60
2023/06/27 02:10:37;;;;;;;20.70;19.90;;;24.60;57.40;;;;;;4994881;28;20807;-59
2023/06/27 02:13:04;;;;;;;19.37;18.67;;;24.60;57.40;;;;;;4995449;28;20479;-61
2023/06/27 02:15:32;;;;;;;20.30;19.70;;;24.60;57.50;;;;;;4995152;28;20555;-60
2023/06/27 02:17:59;;;;;;;20.80;20.10;;;24.60;57.50;;;;;;4995349;28;20879;-60
2023/06/27 02:20:27;;;;;;;20.50;19.80;;;24.50;57.60;;;;;;4987504;28;20448;-61
2023/06/27 02:22:53;;;;;;;19.67;18.97;;;24.60;57.70;;;;;;4975756;28;20444;-61
2023/06/27 02:25:20;;;;;;;19.23;18.63;;;24.50;58.00;;;;;;4975623;28;20558;-61
2023/06/27 02:27:47;;;;;;;19.40;18.60;;;24.60;58.00;;;;;;4975638;28;20569;-61
2023/06/27 02:30:14;;;;;;;20.03;19.33;;;24.50;57.80;;;;;;4975408;28;20531;-60
2023/06/27 02:32:42;;;;;;;19.00;18.40;;;24.50;57.70;;;;;;4975520;28;20522;-61
2023/06/27 02:35:10;;;;;;;19.50;18.80;;;24.50;57.60;;;;;;4975489;28;20495;-60
2023/06/27 02:37:36;;;;;;;19.83;19.13;;;24.50;57.70;;;;;;4975413;28;20474;-61
2023/06/27 02:40:04;;;;;;;19.00;18.40;;;24.50;57.60;;;;;;4975290;28;20550;-61
2023/06/27 02:42:31;;;;;;;19.77;19.03;;;24.50;57.70;;;;;;4975425;28;20494;-60
2023/06/27 02:44:58;;;;;;;20.87;20.07;;;24.40;57.60;;;;;;4975295;28;20503;-61
2023/06/27 02:47:24;;;;;;;21.03;20.23;;;24.40;57.70;;;;;;4975090;28;20483;-59
2023/06/27 02:49:53;;;;;;;20.90;20.20;;;24.40;57.70;;;;;;4974880;28;20483;-61
2023/06/27 02:52:20;;;;;;;19.57;18.97;;;24.40;57.70;;;;;;4975177;28;20534;-61
2023/06/27 02:54:48;;;;;;;19.27;18.60;;;24.40;57.70;;;;;;4974268;28;20993;-62
2023/06/27 02:57:15;;;;;;;22.30;21.50;;;24.40;57.60;;;;;;4974965;28;20451;-61
2023/06/27 02:59:42;;;;;;;19.90;19.20;;;24.30;57.60;;;;;;4974894;28;20490;-61
2023/06/27 03:02:09;;;;;;;20.30;19.53;;;24.30;57.70;;;;;;4975124;28;20451;-61
2023/06/27 03:04:37;;;;;;;20.63;19.90;;;24.30;57.70;;;;;;4975226;28;20559;-61
2023/06/27 03:07:06;;;;;;;20.20;19.50;;;24.30;57.60;;;;;;4974789;28;20487;-60
2023/06/27 03:09:35;;;;;;;20.20;19.50;;;24.30;57.60;;;;;;4986928;28;20561;-61
2023/06/27 03:12:02;;;;;;;19.27;18.67;;;24.30;57.60;;;;;;4994495;28;20482;-61
2023/06/27 03:14:29;;;;;;;19.90;19.30;;;24.30;57.40;;;;;;4994079;28;20578;-60
2023/06/27 03:16:55;;;;;;;20.33;19.63;;;24.20;57.50;;;;;;4994223;28;20614;-59
2023/06/27 03:19:22;;;;;;;21.33;20.53;;;24.20;57.60;;;;;;4983437;28;20479;-60
2023/06/27 03:21:49;;;;;;;20.60;19.70;;;24.20;57.60;;;;;;4974647;28;20475;-61
2023/06/27 03:24:17;;;;;;;18.90;18.00;;;24.20;57.60;;;;;;4974578;28;20484;-62
2023/06/27 03:26:44;;;;;;;20.13;19.33;;;24.20;57.60;;;;;;4974271;28;20483;-58
2023/06/27 03:29:11;;;;;;;20.77;20.03;;;24.20;57.70;;;;;;4973965;28;20915;-62
2023/06/27 03:31:38;;;;;;;20.83;20.03;;;24.20;57.90;;;;;;4974610;28;20476;-63
2023/06/27 03:34:05;;;;;;;20.73;19.83;;;24.20;57.80;;;;;;4974567;28;20882;-64
2023/06/27 03:36:33;;;;;;;20.67;19.87;;;24.10;57.70;;;;;;4974298;28;20456;-63
2023/06/27 03:39:00;;;;;;;20.47;19.77;;;24.20;57.80;;;;;;4974276;28;20437;-64
2023/06/27 03:41:29;;;;;;;21.30;20.40;;;24.20;57.80;;;;;;4974383;28;20487;-63
2023/06/27 03:43:56;;;;;;;20.27;19.40;;;24.20;57.70;;;;;;4974260;28;20452;-63
2023/06/27 03:46:24;;;;;;;19.93;18.93;;;24.10;57.70;;;;;;4973954;28;20499;-64
2023/06/27 03:48:56;;;;;;;20.40;19.60;;;24.10;57.90;;;;;;4973994;28;20476;-63
2023/06/27 03:51:23;;;;;;;20.97;20.00;;;24.10;57.90;;;;;;4974357;28;20482;-62
2023/06/27 03:53:50;;;;;;;20.90;19.67;;;24.10;58.00;;;;;;4974129;28;20490;-61
2023/06/27 03:56:17;;;;;;;20.13;19.43;;;24.10;58.10;;;;;;4973931;28;20986;-61
2023/06/27 03:58:45;;;;;;;22.53;21.60;;;24.10;58.10;;;;;;4973896;28;20475;-62
2023/06/27 04:01:12;;;;;;;23.37;22.47;;;24.00;58.20;;;;;;4974122;28;20451;-61
2023/06/27 04:03:39;;;;;;;22.00;21.20;;;24.10;58.40;;;;;;4973941;28;20490;-60
2023/06/27 04:06:06;;;;;;;22.20;21.20;;;24.10;58.50;;;;;;4973487;28;20559;-60
2023/06/27 04:08:33;;;;;;;24.03;22.27;;;24.10;58.60;;;;;;4973536;28;21052;-60
2023/06/27 04:10:59;;;;;;;22.33;21.33;;;24.10;58.60;;;;;;4973381;28;20962;-60
2023/06/27 04:13:26;;;;;;;24.83;23.53;;;24.10;58.70;;;;;;4973727;28;21038;-61
2023/06/27 04:15:55;;;;;;;23.10;22.20;;;24.10;58.60;;;;;;4973454;28;20906;-62
2023/06/27 04:18:22;;;;;;;24.10;22.93;;;24.10;58.80;;;;;;4973431;28;20476;-61
2023/06/27 04:20:49;;;;;;;24.13;22.53;;;24.20;59.90;;;;;;4973779;28;20880;-62
2023/06/27 04:23:16;;;;;;;24.10;22.87;;;24.20;61.90;;;;;;4973578;28;20483;-61
2023/06/27 04:25:45;;;;;;;22.97;21.77;;;24.20;63.80;;;;;;4973310;28;20522;-61
2023/06/27 04:28:12;;;;;;;22.90;21.67;;;24.20;65.00;;;;;;4972582;28;20562;-59
2023/06/27 04:30:39;;;;;;;22.30;21.20;;;24.20;65.30;;;;;;4968187;28;20824;-60
2023/06/27 04:33:08;;;;;;;24.07;22.40;;;24.20;64.40;;;;;;4993897;28;20468;-60
2023/06/27 04:35:35;;;;;;;22.90;22.10;;;24.20;64.10;;;;;;4993299;28;20502;-61
2023/06/27 04:38:04;;;;;;;22.27;21.27;;;24.20;63.40;;;;;;4993110;28;20998;-60
2023/06/27 04:40:31;;;;;;;21.63;20.47;;;24.20;62.80;;;;;;4993086;28;20907;-62
2023/06/27 04:42:58;;;;;;;22.93;21.80;;;24.30;62.50;;;;;;4992532;28;20538;-61
2023/06/27 04:45:26;;;;;;;21.30;20.40;;;24.30;62.00;;;;;;4992751;28;20479;-60
2023/06/27 04:47:53;;;;;;;20.90;20.00;;;24.30;61.70;;;;;;4993517;28;20454;-60
2023/06/27 04:50:21;;;;;;;23.10;22.20;;;24.30;61.40;;;;;;4993280;28;20447;-61
2023/06/27 04:52:48;;;;;;;24.37;22.77;;;24.30;62.00;;;;;;4993007;28;20471;-62
2023/06/27 04:55:16;;;;;;;22.27;21.43;;;24.30;61.00;;;;;;4993108;28;20602;-62
2023/06/27 04:57:43;;;;;;;23.07;22.07;;;24.30;60.90;;;;;;4993268;28;20534;-61
2023/06/27 05:00:11;;;;;;;22.20;21.17;;;24.30;60.80;;;;;;4993243;28;20454;-61
2023/06/27 05:02:38;;;;;;;23.50;22.63;;;24.30;60.60;;;;;;4993292;28;20873;-60
2023/06/27 05:05:08;;;;;;;22.40;21.40;;;24.30;60.60;;;;;;4992339;28;20458;-61
2023/06/27 05:07:36;;;;;;;21.80;21.00;;;24.30;60.50;;;;;;4992389;28;20449;-63
2023/06/27 05:10:04;;;;;;;23.03;21.90;;;24.30;60.40;;;;;;4992906;28;20514;-61
2023/06/27 05:12:31;;;;;;;20.87;20.00;;;24.30;60.30;;;;;;4994542;28;20797;-61
2023/06/27 05:14:58;;;;;;;21.53;20.73;;;24.30;60.30;;;;;;4995008;28;20494;-60
2023/06/27 05:17:24;;;;;;;22.33;21.40;;;24.30;60.20;;;;;;4994050;28;20512;-61
2023/06/27 05:19:51;;;;;;;22.70;21.90;;;24.40;60.30;;;;;;4994722;28;20485;-61
2023/06/27 05:22:18;;;;;;;21.60;20.80;;;24.40;60.10;;;;;;4993947;28;20447;-61
2023/06/27 05:24:47;;;;;;;21.03;20.33;;;24.40;60.10;;;;;;4993599;28;21050;-60
2023/06/27 05:27:14;;;;;;;22.77;21.87;;;24.40;60.10;;;;;;4993797;28;20983;-62
2023/06/27 05:29:41;;;;;;;22.10;21.20;;;24.40;60.10;;;;;;4994782;28;20526;-61
2023/06/27 05:32:08;;;;;;;23.00;22.10;;;24.40;60.10;;;;;;4994440;28;20871;-60
2023/06/27 05:34:35;;;;;;;23.10;21.90;;;24.40;60.10;;;;;;4992684;28;20980;-61
2023/06/27 05:37:02;;;;;;;25.33;24.37;;;24.40;60.10;;;;;;4991948;28;20447;-61
2023/06/27 05:39:29;;;;;;;24.20;23.30;;;24.40;60.10;;;;;;4992477;28;20443;-60
2023/06/27 05:41:58;;;;;;;23.70;22.60;;;24.40;60.10;;;;;;4992787;28;20509;-61
2023/06/27 05:44:25;;;;;;;23.50;22.60;;;24.40;60.00;;;;;;4992854;28;20475;-61
2023/06/27 05:46:52;;;;;;;22.97;21.90;;;24.40;60.00;;;;;;4992012;28;20569;-61
2023/06/27 05:49:19;;;;;;;24.60;23.60;;;24.40;60.10;;;;;;4992406;28;20482;-62
2023/06/27 05:51:46;;;;;;;23.87;22.83;;;24.40;60.10;;;;;;4992073;28;20918;-61
2023/06/27 05:54:13;;;;;;;22.87;22.00;;;24.40;60.10;;;;;;4991971;28;20505;-62
2023/06/27 05:56:40;;;;;;;22.80;21.90;;;24.40;60.20;;;;;;4992399;28;20462;-61
2023/06/27 05:59:08;;;;;;;22.40;21.60;;;24.40;60.10;;;;;;4992602;28;20478;-61
2023/06/27 06:01:37;;;;;;;25.20;24.20;;;24.50;60.30;;;;;;4992474;28;20513;-62
2023/06/27 06:04:04;;;;;;;23.90;23.10;;;24.40;60.20;;;;;;4992182;28;20461;-61
2023/06/27 06:06:33;;;;;;;25.17;24.27;;;24.50;60.30;;;;;;4992045;28;20478;-60
2023/06/27 06:09:00;;;;;;;24.17;23.37;;;24.50;60.10;;;;;;4992858;28;21014;-62
2023/06/27 06:11:28;;;;;;;25.33;24.23;;;24.50;60.40;;;;;;4992768;28;20483;-61
2023/06/27 06:13:55;;;;;;;24.97;23.90;;;24.50;60.40;;;;;;4993034;28;20505;-60
2023/06/27 06:16:23;;;;;;;25.73;24.63;;;24.40;60.40;;;;;;4992306;28;20498;-62
2023/06/27 06:18:50;;;;;;;25.83;24.80;;;24.50;60.50;;;;;;4992472;28;20568;-62
2023/06/27 06:21:17;;;;;;;27.40;26.17;;;24.50;60.40;;;;;;4992636;28;20486;-61
2023/06/27 06:23:44;;;;;;;23.90;23.00;;;24.50;60.40;;;;;;4992389;28;20482;-61
2023/06/27 06:26:11;;;;;;;24.50;23.70;;;24.50;60.40;;;;;;4991863;28;20749;-62
2023/06/27 06:28:38;;;;;;;24.77;23.87;;;24.50;60.40;;;;;;4994576;28;20475;-61
2023/06/27 06:31:06;;;;;;;26.13;25.23;;;24.50;60.50;;;;;;4995643;28;20482;-61
2023/06/27 06:33:35;;;;;;;27.23;25.93;;;24.50;60.50;;;;;;4995521;28;20448;-62
2023/06/27 06:36:04;;;;;;;26.50;25.60;;;24.50;60.60;;;;;;4995994;28;20841;-60
2023/06/27 06:38:30;;;;;;;26.27;25.03;;;24.50;60.70;;;;;;4995619;28;20489;-62
2023/06/27 06:40:57;;;;;;;25.27;24.17;;;24.40;60.60;;;;;;4995120;28;20474;-60
2023/06/27 06:43:25;;;;;;;26.80;25.80;;;24.50;60.90;;;;;;4995222;28;20487;-61
2023/06/27 06:45:52;;;;;;;24.77;23.77;;;24.40;60.90;;;;;;4994750;28;20471;-62
2023/06/27 06:48:20;;;;;;;25.70;24.80;;;24.50;61.30;;;;;;4995260;28;20866;-60
2023/06/27 06:50:50;;;;;;;26.20;25.00;;;24.40;61.20;;;;;;4995031;28;20483;-61
2023/06/27 06:53:17;;;;;;;25.87;24.77;;;24.40;61.20;;;;;;4994902;28;20454;-61
2023/06/27 06:55:44;;;;;;;26.10;25.10;;;24.50;61.30;;;;;;4994498;28;20541;-62
2023/06/27 06:58:11;;;;;;;26.70;25.60;;;24.50;61.30;;;;;;4994811;28;20470;-61
2023/06/27 07:00:38;;;;;;;24.70;23.70;;;24.50;61.50;;;;;;4995069;28;20483;-61
2023/06/27 07:03:08;;;;;;;25.97;24.97;;;24.50;61.50;;;;;;4994591;28;20574;-61
2023/06/27 07:05:35;;;;;;;25.60;24.57;;;24.50;61.60;;;;;;4994336;28;20475;-60
2023/06/27 07:08:03;;;;;;;26.47;25.10;;;24.50;61.70;;;;;;4994500;28;20446;-60
2023/06/27 07:10:31;;;;;;;25.20;24.30;;;24.50;61.80;;;;;;4994689;28;20529;-61
2023/06/27 07:12:59;;;;;;;26.10;25.13;;;24.50;61.70;;;;;;4994834;28;20453;-61
2023/06/27 07:15:26;;;;;;;26.70;25.47;;;24.50;61.80;;;;;;4994406;28;20517;-61
2023/06/27 07:17:53;;;;;;;27.50;26.10;;;24.50;62.00;;;;;;4994541;28;20936;-60
2023/06/27 07:20:22;;;;;;;27.13;26.10;;;24.50;62.40;;;;;;4994679;28;20585;-59
2023/06/27 07:22:49;;;;;;;26.57;25.40;;;24.50;62.30;;;;;;4994907;28;20887;-60
2023/06/27 07:25:17;;;;;;;28.80;27.43;;;24.50;62.50;;;;;;4994694;28;20506;-60
2023/06/27 07:27:45;;;;;;;28.23;27.03;;;24.50;62.70;;;;;;4994626;28;20443;-59
2023/06/27 07:30:12;;;;;;;26.87;25.63;;;24.50;62.70;;;;;;4994265;28;20514;-58
2023/06/27 07:32:39;;;;;;;26.30;25.20;;;24.50;62.80;;;;;;4994902;28;20443;-60
2023/06/27 07:35:07;;;;;;;26.70;25.53;;;24.50;62.70;;;;;;4994257;28;20494;-59
2023/06/27 07:37:34;;;;;;;25.63;24.30;;;24.50;62.70;;;;;;4994321;28;20880;-58
2023/06/27 07:40:02;;;;;;;26.23;25.13;;;24.50;62.70;;;;;;4993039;28;20545;-60
2023/06/27 07:42:30;;;;;;;26.37;25.27;;;24.60;63.00;;;;;;4993733;28;20447;-58
2023/06/27 07:44:57;;;;;;;28.40;27.00;;;24.60;63.00;;;;;;4993696;28;20575;-58
2023/06/27 07:47:24;;;;;;;27.50;26.30;;;24.50;63.20;;;;;;4993784;28;20451;-59
2023/06/27 07:49:51;;;;;;;28.80;27.67;;;24.50;63.30;;;;;;4993929;28;20915;-60
2023/06/27 07:52:18;;;;;;;27.93;26.93;;;24.50;63.30;;;;;;4993945;28;20487;-62
2023/06/27 07:54:44;;;;;;;27.43;26.27;;;24.50;63.50;;;;;;4993970;28;20570;-61
2023/06/27 07:57:11;;;;;;;28.97;27.67;;;24.50;63.50;;;;;;4994078;28;20440;-59
2023/06/27 07:59:40;;;;;;;29.23;27.97;;;24.50;63.60;;;;;;4993716;28;20443;-60
2023/06/27 08:02:07;;;;;;;29.13;27.87;;;24.50;63.80;;;;;;4993368;28;20447;-62
2023/06/27 08:04:33;;;;;;;26.87;25.67;;;24.50;63.90;;;;;;4993379;28;20471;-60
2023/06/27 08:07:00;;;;;;;27.90;26.70;;;24.50;64.00;;;;;;4993080;28;20482;-60
2023/06/27 08:09:27;;;;;;;29.23;27.93;;;24.50;64.00;;;;;;4993230;28;20490;-59
2023/06/27 08:11:54;;;;;;;27.90;26.50;;;24.50;64.10;;;;;;4993151;28;20506;-60
2023/06/27 08:14:21;;;;;;;26.67;25.67;;;24.60;64.10;;;;;;4993060;28;20883;-60
2023/06/27 08:16:49;;;;;;;26.87;25.63;;;24.60;63.90;;;;;;4993089;28;20545;-59
2023/06/27 08:19:16;;;;;;;27.10;25.80;;;24.60;64.10;;;;;;4993070;28;20501;-60
2023/06/27 08:21:43;;;;;;;27.70;26.53;;;24.60;64.10;;;;;;4993012;28;20447;-57
2023/06/27 08:24:10;;;;;;;25.47;24.57;;;24.60;64.00;;;;;;4992808;28;20952;-59
2023/06/27 08:26:37;;;;;;;27.07;25.87;;;24.60;64.80;;;;;;4993102;28;20487;-60
2023/06/27 08:29:04;;;;;;;26.60;25.70;;;24.60;64.10;;;;;;4992880;28;20486;-60
2023/06/27 08:31:31;;;;;;;27.43;26.33;;;24.60;64.10;;;;;;4992861;28;20443;-61
2023/06/27 08:33:59;;;;;;;27.00;25.63;;;24.60;64.40;;;;;;4992848;28;20443;-60
2023/06/27 08:36:26;;;;;;;26.30;25.20;;;24.60;64.50;;;;;;4992483;28;20462;-60
2023/06/27 08:38:53;;;;;;;26.87;25.77;;;24.60;64.30;;;;;;4992731;28;20443;-58
2023/06/27 08:41:20;;;;;;;26.90;25.70;;;24.60;64.30;;;;;;4992751;28;20475;-60
2023/06/27 08:43:48;;;;;;;25.20;24.30;;;24.60;64.10;;;;;;4992714;28;20450;-59
2023/06/27 08:46:18;;;;;;;25.07;23.97;;;24.60;64.10;;;;;;4992505;28;20459;-57
2023/06/27 08:48:45;;;;;;;26.73;25.73;;;24.60;64.30;;;;;;4992583;28;20811;-59
2023/06/27 08:51:15;;;;;;;29.13;27.90;;;24.60;64.10;;;;;;4992538;28;21131;-59
2023/06/27 08:53:44;;;;;;;26.67;25.47;;;24.60;64.10;;;;;;4992590;28;20479;-59
2023/06/27 08:56:13;;;;;;;27.23;26.13;;;24.60;64.10;;;;;;4992075;28;20562;-59
2023/06/27 08:58:45;;;;;;;27.40;26.17;;;24.60;63.80;;;;;;4992472;28;20953;-60
2023/06/27 09:01:13;;;;;;;26.67;25.60;;;24.60;63.70;;;;;;4992428;28;20489;-59
2023/06/27 09:03:40;;;;;;;26.10;25.10;;;24.70;63.70;;;;;;4992315;28;20483;-59
2023/06/27 09:06:08;;;;;;;25.50;24.43;;;24.60;63.40;;;;;;4992263;28;20601;-59
2023/06/27 09:08:37;;;;;;;27.30;26.30;;;24.60;63.20;;;;;;4992333;28;20850;-59
2023/06/27 09:11:08;;;;;;;29.17;27.80;;;24.70;63.20;;;;;;4992180;28;21054;-59
2023/06/27 09:13:37;;;;;;;27.90;26.80;;;24.70;63.00;;;;;;4992317;28;20484;-60
2023/06/27 09:16:04;;;;;;;26.13;25.03;;;24.70;62.80;;;;;;4992015;28;20549;-59
2023/06/27 09:18:31;;;;;;;27.90;26.70;;;24.70;62.70;;;;;;4992118;28;20906;-59
2023/06/27 09:20:59;;;;;;;26.90;25.80;;;24.70;62.40;;;;;;4992263;28;20514;-58
2023/06/27 09:23:28;;;;;;;27.10;26.10;;;24.70;62.30;;;;;;4992159;28;20479;-59
2023/06/27 09:26:12;;;;;;;27.10;26.00;;;24.70;61.80;;;;;;4991953;28;20897;-61
2023/06/27 09:28:46;;;;;;;25.67;24.57;;;24.70;61.20;;;;;;4990697;28;20455;-58
2023/06/27 09:31:14;;;;;;;26.27;25.23;;;24.70;60.70;;;;;;4991879;28;21009;-60
2023/06/27 09:33:41;;;;;;;26.70;25.50;;;24.70;60.30;;;;;;4992200;28;20473;-59
2023/06/27 09:36:08;;;;;;;25.40;24.37;;;24.70;59.90;;;;;;4992309;28;20479;-61
2023/06/27 09:38:35;;;;;;;26.37;25.33;;;24.70;59.80;;;;;;4992652;28;20525;-57
2023/06/27 09:41:04;;;;;;;26.50;25.40;;;24.70;59.80;;;;;;4992087;28;20475;-60
2023/06/27 09:43:35;;;;;;;25.00;24.10;;;24.70;59.70;;;;;;4992022;28;20457;-60
2023/06/27 09:46:04;;;;;;;24.87;23.97;;;24.70;59.40;;;;;;4991961;28;20517;-58
2023/06/27 09:48:32;;;;;;;25.93;25.03;;;24.70;59.10;;;;;;4991940;28;20490;-59
2023/06/27 09:50:59;;;;;;;26.80;25.63;;;24.70;59.20;;;;;;4991806;28;20512;-59
2023/06/27 09:53:26;;;;;;;25.10;24.10;;;24.70;59.30;;;;;;4991884;28;20979;-59
2023/06/27 09:55:58;;;;;;;26.10;25.03;;;24.70;59.50;;;;;;4991924;28;20483;-61
2023/06/27 09:58:28;;;;;;;26.53;25.60;;;24.80;59.70;;;;;;4992518;28;20971;-62
2023/06/27 10:01:04;;;;;;;26.40;25.50;;;24.70;59.70;;;;;;4992185;28;20478;-61
2023/06/27 10:03:32;;;;;;;26.93;25.73;;;24.80;59.90;;;;;;4994354;28;20451;-58
2023/06/27 10:05:59;;;;;;;27.80;26.30;;;24.80;60.10;;;;;;4995350;28;21041;-59
2023/06/27 10:08:26;;;;;;;25.60;24.60;;;24.80;60.20;;;;;;4995452;28;20481;-55
2023/06/27 10:10:56;;;;;;;28.33;27.20;;;24.80;60.30;;;;;;4995283;28;20541;-56
2023/06/27 10:13:24;;;;;;;26.97;25.90;;;24.80;60.40;;;;;;4995459;28;20461;-57
2023/06/27 10:15:51;;;;;;;25.40;24.60;;;24.80;60.40;;;;;;4995290;28;20505;-58
2023/06/27 10:18:19;;;;;;;26.23;25.23;;;24.80;60.50;;;;;;4995401;28;20443;-58
2023/06/27 10:20:46;;;;;;;24.77;23.77;;;24.80;60.60;;;;;;4995658;28;20490;-57
2023/06/27 10:23:14;;;;;;;24.33;23.33;;;24.80;60.70;;;;;;4995377;28;20541;-59
2023/06/27 10:25:41;;;;;;;25.27;24.33;;;24.80;60.70;;;;;;4995105;28;20498;-60
2023/06/27 10:28:09;;;;;;;25.03;24.13;;;24.80;60.70;;;;;;4995159;28;20474;-60
2023/06/27 10:30:43;;;;;;;26.10;25.00;;;24.80;60.30;;;;;;4995033;28;20518;-57
2023/06/27 10:33:20;;;;;;;27.57;26.47;;;24.90;60.30;;;;;;4995019;28;20485;-58
2023/06/27 10:35:54;;;;;;;26.90;25.90;;;24.90;60.10;;;;;;4994874;28;20470;-56
2023/06/27 10:38:21;;;;;;;26.43;25.30;;;24.80;59.80;;;;;;4995024;28;20949;-58
2023/06/27 10:41:09;;;;;;;25.30;24.20;;;24.80;59.80;;;;;;4994903;28;20485;-59
2023/06/27 10:43:37;;;;;;;27.30;26.30;;;24.90;59.70;;;;;;4994888;28;20526;-59
2023/06/27 10:46:08;;;;;;;26.60;25.50;;;24.80;59.50;;;;;;4994618;28;20466;-58
2023/06/27 10:48:36;;;;;;;26.23;25.23;;;24.80;59.50;;;;;;4994978;28;20486;-61
2023/06/27 10:51:09;;;;;;;27.20;26.13;;;24.90;59.60;;;;;;4995403;28;20565;-59
2023/06/27 10:53:42;;;;;;;26.17;25.17;;;24.90;59.50;;;;;;4995123;28;20451;-60
2023/06/27 10:56:16;;;;;;;26.53;25.53;;;24.80;59.80;;;;;;4995256;28;20475;-59
2023/06/27 10:58:46;;;;;;;26.40;25.50;;;24.90;59.30;;;;;;4994355;28;20454;-59
2023/06/27 11:01:13;;;;;;;25.10;24.20;;;24.90;59.20;;;;;;4994638;28;20447;-60
2023/06/27 11:03:43;;;;;;;26.17;25.20;;;24.90;59.30;;;;;;4994415;28;20864;-61
2023/06/27 11:06:11;;;;;;;26.00;25.10;;;24.90;59.20;;;;;;4994220;28;20467;-60
2023/06/27 11:08:40;;;;;;;26.80;25.80;;;24.90;59.10;;;;;;4994492;28;20462;-59
2023/06/27 11:11:07;;;;;;;27.23;26.03;;;24.90;59.10;;;;;;4994293;28;21019;-59
2023/06/27 11:13:36;;;;;;;26.33;25.13;;;24.90;59.00;;;;;;4993622;28;20538;-60
2023/06/27 11:16:04;;;;;;;25.63;24.70;;;24.90;59.00;;;;;;4993771;28;20570;-59
2023/06/27 11:18:34;;;;;;;27.70;26.80;;;24.90;58.90;;;;;;4994177;28;20505;-62
2023/06/27 11:21:02;;;;;;;26.77;25.67;;;25.00;58.80;;;;;;4994228;28;21035;-59
2023/06/27 11:23:31;;;;;;;28.03;27.03;;;24.90;58.60;;;;;;4994136;28;20457;-61
2023/06/27 11:25:59;;;;;;;26.07;25.17;;;24.90;58.40;;;;;;4994152;28;20498;-59
2023/06/27 11:28:26;;;;;;;26.40;25.33;;;24.90;58.10;;;;;;4993942;28;20505;-59
2023/06/27 11:30:59;;;;;;;27.13;26.03;;;24.90;57.90;;;;;;4993923;28;20525;-60
2023/06/27 11:33:26;;;;;;;27.00;25.90;;;24.90;57.60;;;;;;4994067;28;20470;-61
2023/06/27 11:35:53;;;;;;;25.97;24.97;;;24.90;57.50;;;;;;4993698;28;20951;-60
2023/06/27 11:38:24;;;;;;;27.13;26.13;;;24.90;57.40;;;;;;4993928;28;20871;-60
2023/06/27 11:40:52;;;;;;;28.97;27.77;;;24.90;57.10;;;;;;4993920;28;20446;-61
2023/06/27 11:43:19;;;;;;;28.30;27.07;;;24.90;57.10;;;;;;4993817;28;20504;-61
2023/06/27 11:45:48;;;;;;;26.23;25.23;;;24.90;57.00;;;;;;4993527;28;20474;-61
2023/06/27 11:48:15;;;;;;;27.77;26.73;;;24.90;57.20;;;;;;4993641;28;20920;-58
2023/06/27 11:51:04;;;;;;;26.00;25.10;;;24.90;57.30;;;;;;4993538;28;20918;-61
2023/06/27 11:53:33;;;;;;;27.30;26.30;;;24.90;57.40;;;;;;4993588;28;20567;-59
2023/06/27 11:56:02;;;;;;;26.70;25.60;;;24.90;57.50;;;;;;4993404;28;20497;-60
2023/06/27 11:58:30;;;;;;;26.23;25.30;;;24.90;57.50;;;;;;4993500;28;20482;-58
2023/06/27 12:00:58;;;;;;;25.60;24.60;;;24.90;57.50;;;;;;4993412;28;21018;-59
2023/06/27 12:03:29;;;;;;;25.57;24.67;;;24.90;57.30;;;;;;4993298;28;20854;-59
2023/06/27 12:05:57;;;;;;;27.40;26.10;;;24.90;57.30;;;;;;4993174;28;20471;-59
2023/06/27 12:08:30;;;;;;;27.23;26.10;;;24.90;57.30;;;;;;4993266;28;20456;-61
2023/06/27 12:11:00;;;;;;;26.67;25.73;;;24.90;57.30;;;;;;4993157;28;20509;-59
2023/06/27 12:13:37;;;;;;;27.87;26.60;;;24.90;57.10;;;;;;4993369;28;20458;-60
2023/06/27 12:16:04;;;;;;;28.20;27.03;;;24.90;57.00;;;;;;4993084;28;20463;-58
2023/06/27 12:18:32;;;;;;;27.13;25.90;;;25.00;57.10;;;;;;4993060;28;20883;-60
2023/06/27 12:21:00;;;;;;;26.50;25.33;;;25.00;57.10;;;;;;4993194;28;20470;-61
2023/06/27 12:23:29;;;;;;;27.80;26.70;;;25.00;57.10;;;;;;4993072;28;20509;-57
2023/06/27 12:25:56;;;;;;;27.17;26.17;;;25.00;57.10;;;;;;4992520;28;20690;-58
2023/06/27 12:28:24;;;;;;;26.50;25.40;;;25.00;57.10;;;;;;4992934;28;20451;-60
2023/06/27 12:30:53;;;;;;;26.07;25.17;;;25.00;57.10;;;;;;4992837;28;20474;-59
2023/06/27 12:33:20;;;;;;;26.63;25.43;;;25.00;56.90;;;;;;4992889;28;21030;-59